Time;durP1;ratioP1;P1;durP2;ratioP2;P2;SDS_P1;SDS_P2;PMS_P1;PMS_P2;Temp;Humidity;BMP_temperature;BMP_pressure;BME280_temperature;BME280_humidity;BME280_pressure;Samples;Min_cycle;Max_cycle;Signal;HPM_P1;HPM_P2
2021/05/03 00:02:41;;;;;;;58.10;3.03;;;5.80;77.30;;;;;;5094486;28;20214;-67
2021/05/03 00:05:18;;;;;;;58.05;2.90;;;5.70;78.00;;;;;;5094699;28;20212;-66
2021/05/03 00:07:45;;;;;;;57.67;2.60;;;5.70;79.60;;;;;;5094848;28;20247;-66
2021/05/03 00:10:12;;;;;;;57.60;2.60;;;5.80;81.00;;;;;;5094923;28;20390;-66
2021/05/03 00:12:39;;;;;;;57.80;3.00;;;5.80;80.90;;;;;;5094363;28;20574;-66
2021/05/03 00:15:06;;;;;;;57.80;2.70;;;5.80;82.00;;;;;;5094364;28;20248;-67
2021/05/03 00:17:33;;;;;;;58.15;3.10;;;5.80;83.10;;;;;;5094766;28;20222;-66
2021/05/03 00:19:59;;;;;;;58.40;3.20;;;5.90;82.70;;;;;;5093720;28;20258;-66
2021/05/03 00:22:25;;;;;;;58.00;2.60;;;5.90;82.50;;;;;;5094157;28;20750;-66
2021/05/03 00:24:53;;;;;;;57.90;3.03;;;5.90;82.80;;;;;;5094223;28;20291;-67
2021/05/03 00:27:19;;;;;;;57.78;2.63;;;5.90;82.70;;;;;;5094314;28;20200;-66
2021/05/03 00:29:45;;;;;;;58.00;3.05;;;5.90;83.10;;;;;;5094194;28;20241;-67
2021/05/03 00:32:12;;;;;;;57.85;2.90;;;5.90;83.70;;;;;;5093661;28;20208;-66
2021/05/03 00:34:38;;;;;;;58.33;3.05;;;5.90;84.00;;;;;;5094018;28;20319;-67
2021/05/03 00:37:04;;;;;;;58.08;2.95;;;5.90;83.80;;;;;;5093938;28;20747;-67
2021/05/03 00:39:30;;;;;;;58.40;3.17;;;5.80;83.70;;;;;;5094171;28;20301;-67
2021/05/03 00:41:58;;;;;;;57.67;2.80;;;5.80;83.90;;;;;;5093384;28;20215;-66
2021/05/03 00:44:26;;;;;;;57.80;2.90;;;5.70;84.00;;;;;;5093568;28;20204;-66
2021/05/03 00:46:55;;;;;;;57.67;2.50;;;5.70;85.10;;;;;;5093776;28;20705;-66
2021/05/03 00:49:21;;;;;;;57.25;2.60;;;5.60;85.70;;;;;;5092839;28;20220;-67
2021/05/03 00:51:47;;;;;;;57.72;3.03;;;5.60;86.40;;;;;;5091154;28;20314;-66
2021/05/03 00:54:14;;;;;;;57.83;2.70;;;5.60;88.30;;;;;;5092931;28;20224;-66
2021/05/03 00:56:40;;;;;;;57.78;2.85;;;5.60;88.40;;;;;;5093748;28;20216;-66
2021/05/03 00:59:08;;;;;;;57.78;2.80;;;5.60;88.40;;;;;;5093497;28;20346;-67
2021/05/03 01:01:34;;;;;;;57.78;2.65;;;5.60;89.50;;;;;;5093694;28;20311;-66
2021/05/03 01:04:01;;;;;;;57.58;2.72;;;5.60;90.60;;;;;;5093172;28;20291;-66
2021/05/03 01:06:27;;;;;;;58.00;2.97;;;5.70;91.00;;;;;;5093513;28;20200;-66
2021/05/03 01:08:53;;;;;;;57.50;2.60;;;5.70;91.70;;;;;;5093392;28;20212;-65
2021/05/03 01:11:20;;;;;;;57.70;2.70;;;5.80;91.80;;;;;;5093258;28;20224;-66
2021/05/03 01:13:46;;;;;;;57.63;2.70;;;5.80;92.10;;;;;;5093089;28;20259;-65
2021/05/03 01:16:14;;;;;;;57.78;2.40;;;5.80;92.60;;;;;;5093516;28;20640;-66
2021/05/03 01:18:40;;;;;;;57.90;3.22;;;5.90;92.60;;;;;;5093370;28;20376;-66
2021/05/03 01:21:07;;;;;;;57.60;2.40;;;5.80;92.60;;;;;;5093325;28;20298;-66
2021/05/03 01:23:34;;;;;;;57.47;2.50;;;5.80;92.30;;;;;;5083631;28;20288;-66
2021/05/03 01:26:01;;;;;;;57.45;2.42;;;5.80;92.20;;;;;;5082096;28;20656;-66
2021/05/03 01:28:28;;;;;;;57.38;2.15;;;5.80;92.10;;;;;;5092932;28;20257;-66
2021/05/03 01:30:54;;;;;;;57.60;2.53;;;5.80;92.20;;;;;;5092452;28;20299;-66
2021/05/03 01:33:20;;;;;;;57.90;3.15;;;5.70;92.20;;;;;;5092047;28;20231;-66
2021/05/03 01:35:48;;;;;;;57.65;2.53;;;5.70;92.30;;;;;;5092833;28;20204;-66
2021/05/03 01:38:16;;;;;;;57.67;3.00;;;5.60;92.90;;;;;;5093087;28;20204;-66
2021/05/03 01:40:44;;;;;;;57.67;2.70;;;5.60;93.60;;;;;;5092686;28;20273;-66
2021/05/03 01:43:13;;;;;;;58.00;2.90;;;5.60;95.20;;;;;;5092618;28;20577;-66
2021/05/03 01:45:41;;;;;;;57.70;2.92;;;5.60;96.40;;;;;;5092803;28;20260;-66
2021/05/03 01:48:09;;;;;;;57.78;2.80;;;5.50;96.90;;;;;;5092625;28;20294;-66
2021/05/03 01:50:36;;;;;;;57.90;3.00;;;5.50;97.60;;;;;;5092488;28;20311;-66
2021/05/03 01:53:03;;;;;;;57.78;2.70;;;5.40;97.50;;;;;;5092022;28;20224;-66
2021/05/03 01:55:31;;;;;;;58.50;3.22;;;5.40;97.30;;;;;;5089915;28;20200;-66
2021/05/03 01:57:57;;;;;;;59.75;3.35;;;5.30;97.70;;;;;;5092286;28;20253;-66
2021/05/03 02:00:24;;;;;;;60.03;4.03;;;5.30;98.80;;;;;;5092286;28;20228;-66
2021/05/03 02:02:50;;;;;;;58.20;3.00;;;5.20;99.90;;;;;;5092057;28;20235;-65
2021/05/03 02:05:18;;;;;;;57.88;3.10;;;5.20;99.90;;;;;;5091990;28;20204;-66
2021/05/03 02:07:45;;;;;;;57.88;3.00;;;5.20;99.90;;;;;;5092241;28;20244;-66
2021/05/03 02:10:12;;;;;;;57.80;3.00;;;5.20;99.90;;;;;;5092420;28;20285;-66
2021/05/03 02:12:40;;;;;;;57.90;2.90;;;5.20;99.90;;;;;;5092206;28;20204;-66
2021/05/03 02:15:08;;;;;;;58.25;3.22;;;5.20;99.90;;;;;;5091925;28;20235;-66
2021/05/03 02:17:35;;;;;;;57.58;2.50;;;5.20;99.90;;;;;;5092341;28;20365;-66
2021/05/03 02:20:01;;;;;;;57.92;3.20;;;5.20;99.90;;;;;;5092107;28;20640;-66
2021/05/03 02:22:28;;;;;;;57.75;2.70;;;5.20;99.90;;;;;;5091625;28;20204;-66
2021/05/03 02:24:54;;;;;;;61.47;4.35;;;5.10;99.90;;;;;;5091973;28;20255;-66
2021/05/03 02:27:20;;;;;;;58.10;3.50;;;5.10;99.90;;;;;;5088777;28;20709;-66
2021/05/03 02:29:47;;;;;;;57.67;2.90;;;5.10;99.90;;;;;;5083381;28;20267;-66
2021/05/03 02:32:14;;;;;;;57.78;3.10;;;5.00;99.90;;;;;;5071402;28;20295;-66
2021/05/03 02:34:40;;;;;;;57.90;2.75;;;4.90;99.90;;;;;;5071484;28;20225;-66
2021/05/03 02:37:07;;;;;;;57.97;2.53;;;4.90;99.90;;;;;;5071342;28;20304;-66
2021/05/03 02:39:34;;;;;;;57.80;3.03;;;4.80;99.90;;;;;;5071413;28;20240;-66
2021/05/03 02:42:00;;;;;;;58.40;3.38;;;4.80;99.90;;;;;;5071177;28;20209;-67
2021/05/03 02:44:26;;;;;;;57.58;2.63;;;4.70;99.90;;;;;;5071299;28;20292;-66
2021/05/03 02:46:54;;;;;;;57.72;2.60;;;4.80;99.90;;;;;;5071537;28;20298;-66
2021/05/03 02:49:20;;;;;;;58.22;3.20;;;4.70;99.90;;;;;;5071354;28;20621;-66
2021/05/03 02:51:46;;;;;;;57.85;2.67;;;4.70;99.90;;;;;;5071223;28;20248;-66
2021/05/03 02:54:14;;;;;;;57.45;2.60;;;4.60;99.90;;;;;;5071193;28;20224;-66
2021/05/03 02:56:40;;;;;;;57.90;2.60;;;4.60;99.90;;;;;;5071573;28;20200;-67
2021/05/03 02:59:06;;;;;;;57.78;2.92;;;4.60;99.90;;;;;;5070423;28;20296;-66
2021/05/03 03:01:33;;;;;;;57.72;2.72;;;4.50;99.90;;;;;;5071431;28;20903;-66
2021/05/03 03:04:00;;;;;;;57.65;2.72;;;4.40;99.90;;;;;;5070758;28;20215;-66
2021/05/03 03:06:26;;;;;;;58.08;2.67;;;4.40;99.90;;;;;;5071775;28;20222;-67
2021/05/03 03:08:52;;;;;;;59.85;3.10;;;4.40;99.90;;;;;;5071890;28;20299;-66
2021/05/03 03:11:20;;;;;;;57.90;3.10;;;4.30;99.90;;;;;;5071613;28;20225;-66
2021/05/03 03:13:46;;;;;;;57.88;3.10;;;4.30;99.90;;;;;;5070781;28;20220;-66
2021/05/03 03:16:16;;;;;;;57.88;3.10;;;4.20;99.90;;;;;;5071776;28;20243;-66
2021/05/03 03:18:43;;;;;;;57.85;3.17;;;4.20;99.90;;;;;;5071812;28;20201;-66
2021/05/03 03:21:10;;;;;;;57.50;2.70;;;4.20;99.90;;;;;;5071577;28;20224;-66
2021/05/03 03:23:36;;;;;;;59.60;3.10;;;4.20;99.90;;;;;;5071526;28;20630;-66
2021/05/03 03:26:03;;;;;;;58.40;3.00;;;4.10;99.90;;;;;;5071394;28;20316;-66
2021/05/03 03:28:29;;;;;;;57.47;2.70;;;4.10;99.90;;;;;;5071356;28;20236;-66
2021/05/03 03:30:55;;;;;;;58.10;3.20;;;4.10;99.90;;;;;;5071158;28;20225;-66
2021/05/03 03:33:22;;;;;;;57.78;2.67;;;4.10;99.90;;;;;;5070790;28;20260;-66
2021/05/03 03:35:48;;;;;;;58.00;2.90;;;4.00;99.90;;;;;;5071097;28;20205;-66
2021/05/03 03:38:15;;;;;;;57.78;3.10;;;4.00;99.90;;;;;;5070943;28;20244;-66
2021/05/03 03:40:42;;;;;;;58.10;2.80;;;4.10;99.90;;;;;;5071204;28;20311;-66
2021/05/03 03:43:09;;;;;;;57.53;2.67;;;4.00;99.90;;;;;;5071242;28;20303;-66
2021/05/03 03:45:35;;;;;;;57.38;2.80;;;4.00;99.90;;;;;;5070921;28;20753;-67
2021/05/03 03:48:01;;;;;;;57.67;2.90;;;4.10;99.90;;;;;;5071053;28;20288;-66
2021/05/03 03:50:28;;;;;;;58.28;3.50;;;4.00;99.90;;;;;;5071016;28;20603;-66
2021/05/03 03:52:54;;;;;;;57.55;2.80;;;4.10;99.90;;;;;;5070944;28;20296;-66
2021/05/03 03:55:21;;;;;;;57.33;2.65;;;4.00;99.90;;;;;;5072594;28;20295;-66
2021/05/03 03:57:48;;;;;;;57.58;2.50;;;4.00;99.90;;;;;;5074848;28;20204;-66
2021/05/03 04:00:15;;;;;;;57.70;2.67;;;4.00;99.90;;;;;;5074477;28;20256;-66
2021/05/03 04:02:42;;;;;;;58.33;3.08;;;3.90;99.90;;;;;;5074560;28;20209;-66
2021/05/03 04:05:19;;;;;;;58.08;2.95;;;4.00;99.90;;;;;;5074267;28;20299;-66
2021/05/03 04:07:50;;;;;;;62.92;3.38;;;4.00;99.90;;;;;;5074759;28;20218;-66
2021/05/03 04:10:29;;;;;;;57.35;2.50;;;3.90;99.90;;;;;;5074431;28;20264;-66
2021/05/03 04:21:10;;;;;;;57.38;2.80;;;3.90;99.90;;;;;;5074250;28;20224;-67
2021/05/03 04:23:56;;;;;;;57.90;2.60;;;3.90;99.90;;;;;;5074036;28;20201;-66
2021/05/03 04:26:24;;;;;;;57.65;2.72;;;3.90;99.90;;;;;;5074317;28;20240;-66
2021/05/03 04:28:53;;;;;;;57.60;2.30;;;3.90;99.90;;;;;;5074229;28;20624;-66
2021/05/03 04:31:20;;;;;;;58.67;2.90;;;4.00;99.90;;;;;;5074186;28;20301;-66
2021/05/03 04:33:47;;;;;;;57.80;2.97;;;4.00;99.90;;;;;;5073381;28;20311;-66
2021/05/03 04:36:13;;;;;;;57.45;2.47;;;3.90;99.90;;;;;;5074096;28;20287;-66
2021/05/03 04:38:40;;;;;;;57.50;2.45;;;3.90;99.90;;;;;;5074140;28;20213;-66
2021/05/03 04:41:08;;;;;;;57.95;3.03;;;3.90;99.90;;;;;;5074073;28;20227;-66
2021/05/03 04:43:35;;;;;;;58.10;3.55;;;3.90;99.90;;;;;;5073549;28;20205;-66
2021/05/03 04:46:02;;;;;;;58.00;2.80;;;3.90;99.90;;;;;;5073886;28;20647;-66
2021/05/03 04:48:29;;;;;;;61.00;3.13;;;4.00;99.90;;;;;;5073604;28;20292;-67
2021/05/03 04:50:55;;;;;;;57.28;2.38;;;3.90;99.90;;;;;;5073875;28;20265;-66
2021/05/03 04:53:22;;;;;;;58.20;3.65;;;3.90;99.90;;;;;;5073554;28;20256;-66
2021/05/03 04:55:48;;;;;;;57.55;2.50;;;4.00;99.90;;;;;;5073383;28;20209;-66
2021/05/03 04:58:15;;;;;;;67.55;3.00;;;4.00;99.90;;;;;;5073659;28;20565;-65
2021/05/03 05:00:42;;;;;;;57.80;2.70;;;4.00;99.90;;;;;;5073523;28;20315;-66
2021/05/03 05:03:09;;;;;;;58.47;3.92;;;4.00;99.90;;;;;;5073517;28;20285;-66
2021/05/03 05:05:35;;;;;;;57.38;2.80;;;4.10;99.90;;;;;;5072998;28;20237;-66
2021/05/03 05:08:02;;;;;;;57.65;2.90;;;4.10;99.90;;;;;;5073662;28;20292;-66
2021/05/03 05:10:28;;;;;;;57.88;2.90;;;4.10;99.90;;;;;;5073460;28;20229;-66
2021/05/03 05:12:54;;;;;;;57.67;3.10;;;4.20;99.90;;;;;;5073073;28;20259;-66
2021/05/03 05:15:21;;;;;;;57.75;3.47;;;4.20;99.90;;;;;;5072929;28;20776;-66
2021/05/03 05:17:48;;;;;;;58.00;3.20;;;4.20;99.90;;;;;;5073557;28;20300;-66
2021/05/03 05:20:17;;;;;;;57.88;3.30;;;4.20;99.90;;;;;;5073372;28;20311;-66
2021/05/03 05:22:43;;;;;;;57.70;3.15;;;4.20;99.90;;;;;;5072772;28;20566;-66
2021/05/03 05:25:11;;;;;;;58.05;3.15;;;4.30;99.90;;;;;;5092265;28;20291;-66
2021/05/03 05:27:38;;;;;;;57.95;3.17;;;4.30;99.90;;;;;;5093591;28;20328;-67
2021/05/03 05:30:05;;;;;;;57.67;2.70;;;4.40;99.90;;;;;;5090599;28;20707;-66
2021/05/03 05:32:32;;;;;;;58.58;3.80;;;4.40;99.90;;;;;;5092390;28;20283;-66
2021/05/03 05:34:58;;;;;;;57.80;2.85;;;4.50;99.90;;;;;;5092780;28;20315;-66
2021/05/03 05:37:25;;;;;;;57.70;2.95;;;4.60;99.90;;;;;;5093204;28;20643;-66
2021/05/03 05:39:52;;;;;;;57.88;3.03;;;4.70;99.90;;;;;;5092757;28;20256;-66
2021/05/03 05:42:18;;;;;;;57.78;2.90;;;4.90;99.90;;;;;;5092417;28;20279;-66
2021/05/03 05:44:44;;;;;;;57.78;2.80;;;5.00;99.90;;;;;;5092960;28;20196;-65
2021/05/03 05:47:11;;;;;;;57.47;2.65;;;5.10;99.90;;;;;;5092863;28;20299;-65
2021/05/03 05:49:37;;;;;;;58.63;2.92;;;5.30;99.90;;;;;;5092450;28;20208;-66
2021/05/03 05:52:04;;;;;;;57.88;3.92;;;5.40;99.90;;;;;;5092188;28;20220;-66
2021/05/03 05:54:31;;;;;;;58.30;3.85;;;5.50;99.90;;;;;;5092291;28;20330;-66
2021/05/03 05:56:58;;;;;;;57.80;2.95;;;5.60;99.90;;;;;;5092224;28;20300;-66
2021/05/03 05:59:24;;;;;;;58.47;3.67;;;5.70;99.90;;;;;;5091652;28;20208;-66
2021/05/03 06:01:51;;;;;;;59.47;4.38;;;5.70;99.90;;;;;;5089623;28;20232;-67
2021/05/03 06:04:17;;;;;;;59.33;5.65;;;5.80;99.90;;;;;;5092074;28;20293;-66
2021/05/03 06:06:43;;;;;;;57.67;2.90;;;5.80;99.90;;;;;;5092315;28;20298;-65
2021/05/03 06:09:10;;;;;;;58.00;3.30;;;5.80;99.90;;;;;;5092239;28;20296;-66
2021/05/03 06:11:37;;;;;;;57.90;2.80;;;5.70;99.90;;;;;;5092571;28;20314;-66
2021/05/03 06:14:04;;;;;;;58.20;3.83;;;5.70;99.90;;;;;;5092150;28;20335;-66
2021/05/03 06:16:30;;;;;;;57.70;2.80;;;5.70;99.90;;;;;;5092185;28;20308;-66
2021/05/03 06:18:57;;;;;;;57.45;2.75;;;5.80;99.90;;;;;;5091670;28;20232;-66
2021/05/03 06:21:23;;;;;;;58.10;3.30;;;5.80;99.90;;;;;;5092113;28;20220;-66
2021/05/03 06:23:49;;;;;;;57.80;3.28;;;5.90;99.90;;;;;;5091559;28;20208;-66
2021/05/03 06:26:16;;;;;;;57.38;2.63;;;5.90;99.90;;;;;;5091706;28;20212;-66
2021/05/03 06:28:43;;;;;;;58.17;3.35;;;6.00;99.90;;;;;;5092251;28;20262;-66
2021/05/03 06:31:09;;;;;;;57.67;2.85;;;6.00;99.90;;;;;;5091709;28;20334;-66
2021/05/03 06:33:36;;;;;;;58.30;3.10;;;6.10;99.90;;;;;;5086614;28;20785;-66
2021/05/03 06:36:04;;;;;;;57.70;2.72;;;6.20;99.90;;;;;;5071734;28;20291;-66
2021/05/03 06:38:30;;;;;;;57.60;2.90;;;6.30;99.90;;;;;;5071958;28;20261;-66
2021/05/03 06:40:56;;;;;;;57.35;2.63;;;6.40;99.90;;;;;;5071342;28;20256;-66
2021/05/03 06:43:23;;;;;;;57.47;2.63;;;6.40;99.90;;;;;;5071368;28;20248;-65
2021/05/03 06:45:50;;;;;;;58.17;3.55;;;6.50;99.90;;;;;;5071200;28;20210;-66
2021/05/03 06:48:17;;;;;;;58.08;3.47;;;6.60;99.90;;;;;;5071646;28;20205;-66
2021/05/03 06:50:45;;;;;;;57.72;3.30;;;6.70;99.90;;;;;;5071232;28;20243;-66
2021/05/03 06:53:12;;;;;;;57.70;2.90;;;6.80;99.90;;;;;;5070909;28;20209;-66
2021/05/03 06:55:38;;;;;;;57.67;3.20;;;6.80;99.90;;;;;;5071073;28;20310;-66
2021/05/03 06:58:05;;;;;;;58.47;3.47;;;6.90;99.90;;;;;;5071637;28;20206;-66
2021/05/03 07:00:33;;;;;;;59.38;3.47;;;6.90;99.90;;;;;;5071317;28;20262;-66
2021/05/03 07:03:00;;;;;;;57.45;2.50;;;6.90;99.90;;;;;;5068594;28;20206;-65
2021/05/03 07:05:29;;;;;;;57.55;2.80;;;7.00;99.90;;;;;;5070980;28;20280;-66
2021/05/03 07:07:55;;;;;;;57.78;3.25;;;7.10;99.90;;;;;;5070786;28;20289;-66
2021/05/03 07:10:21;;;;;;;57.90;3.47;;;7.10;99.90;;;;;;5071530;28;20312;-66
2021/05/03 07:12:48;;;;;;;58.17;3.35;;;7.20;99.90;;;;;;5071282;28;20208;-66
2021/05/03 07:15:16;;;;;;;58.25;3.53;;;7.30;99.90;;;;;;5071049;28;20243;-66
2021/05/03 07:17:43;;;;;;;57.50;2.70;;;7.30;99.90;;;;;;5071378;28;20213;-65
2021/05/03 07:20:11;;;;;;;57.85;3.20;;;7.40;99.90;;;;;;5071146;28;20282;-66
2021/05/03 07:22:38;;;;;;;58.38;3.67;;;7.50;99.90;;;;;;5070870;28;20302;-66
2021/05/03 07:25:07;;;;;;;57.33;2.50;;;7.60;99.90;;;;;;5071191;28;20558;-66
2021/05/03 07:27:34;;;;;;;58.00;2.60;;;7.80;99.90;;;;;;5071240;28;20454;-66
2021/05/03 07:30:00;;;;;;;57.97;3.43;;;7.90;99.90;;;;;;5073949;28;20225;-66
2021/05/03 07:32:27;;;;;;;57.90;3.83;;;8.00;99.90;;;;;;5074714;28;21044;-65
2021/05/03 07:34:53;;;;;;;57.27;2.60;;;8.10;97.20;;;;;;5074531;28;20568;-66
2021/05/03 07:37:20;;;;;;;58.10;3.37;;;8.20;93.00;;;;;;5075174;28;20454;-67
2021/05/03 07:39:47;;;;;;;58.20;2.70;;;8.30;91.70;;;;;;5074854;28;20472;-66
2021/05/03 07:42:13;;;;;;;60.00;3.70;;;8.50;91.10;;;;;;5074517;28;20547;-66
2021/05/03 07:44:40;;;;;;;57.90;3.33;;;8.50;90.60;;;;;;5074665;28;20482;-66
2021/05/03 07:47:06;;;;;;;57.37;2.80;;;8.70;89.00;;;;;;5074826;28;20533;-66
2021/05/03 07:49:33;;;;;;;57.23;2.43;;;8.80;85.80;;;;;;5074569;28;20887;-66
2021/05/03 07:51:59;;;;;;;60.37;3.73;;;9.00;81.30;;;;;;5074132;28;20461;-66
2021/05/03 07:54:27;;;;;;;57.43;2.60;;;9.10;78.80;;;;;;5074300;28;20521;-67
2021/05/03 07:56:53;;;;;;;62.50;2.70;;;9.20;75.90;;;;;;5074756;28;20484;-66
2021/05/03 07:59:19;;;;;;;59.00;4.07;;;9.30;74.20;;;;;;5074923;28;20450;-66
2021/05/03 08:01:46;;;;;;;57.87;3.23;;;9.40;73.80;;;;;;5074485;28;20554;-67
2021/05/03 08:04:12;;;;;;;57.87;3.50;;;9.60;71.60;;;;;;5074254;28;20530;-67
2021/05/03 08:06:39;;;;;;;57.80;2.80;;;9.70;68.40;;;;;;5074654;28;20537;-66
2021/05/03 08:09:06;;;;;;;58.40;3.80;;;9.80;66.30;;;;;;5074491;28;20545;-67
2021/05/03 08:11:33;;;;;;;58.17;3.00;;;9.90;64.20;;;;;;5074376;28;20891;-67
2021/05/03 08:14:00;;;;;;;57.37;2.77;;;10.00;60.10;;;;;;5073643;28;20517;-66
2021/05/03 08:16:28;;;;;;;57.40;2.80;;;10.10;59.30;;;;;;5074131;28;20447;-67
2021/05/03 08:18:54;;;;;;;57.70;2.70;;;10.20;55.70;;;;;;5074320;28;20458;-67
2021/05/03 08:21:21;;;;;;;57.60;3.33;;;10.30;54.20;;;;;;5074261;28;20563;-66
2021/05/03 08:23:47;;;;;;;57.40;2.83;;;10.50;51.50;;;;;;5073778;28;20893;-66
2021/05/03 08:26:13;;;;;;;58.20;3.20;;;10.90;53.30;;;;;;5074042;28;20534;-66
2021/05/03 08:28:46;;;;;;;58.67;3.93;;;11.40;51.90;;;;;;5074006;28;20450;-67
2021/05/03 08:31:12;;;;;;;57.67;2.90;;;11.90;47.90;;;;;;5073776;28;20471;-66
2021/05/03 08:33:38;;;;;;;59.87;3.57;;;12.20;43.00;;;;;;5073617;28;20447;-67
2021/05/03 08:36:05;;;;;;;57.47;2.83;;;12.50;40.90;;;;;;5074021;28;20482;-66
2021/05/03 08:38:31;;;;;;;58.83;3.30;;;12.70;38.20;;;;;;5073408;28;20533;-66
2021/05/03 08:40:59;;;;;;;58.10;3.10;;;12.80;36.30;;;;;;5073249;28;20493;-66
2021/05/03 08:43:28;;;;;;;57.87;3.10;;;12.80;34.80;;;;;;5073516;28;20495;-66
2021/05/03 08:45:55;;;;;;;57.87;2.70;;;12.80;33.70;;;;;;5073446;28;20887;-67
2021/05/03 08:48:26;;;;;;;58.30;3.50;;;12.80;32.50;;;;;;5073753;28;20482;-66
2021/05/03 08:50:57;;;;;;;57.90;3.57;;;12.80;32.90;;;;;;5073727;28;20820;-66
2021/05/03 08:53:28;;;;;;;57.63;2.90;;;12.70;32.90;;;;;;5073207;28;20449;-66
2021/05/03 08:55:54;;;;;;;57.90;3.27;;;12.80;33.20;;;;;;5073542;28;20463;-66
2021/05/03 08:58:21;;;;;;;60.10;3.40;;;12.90;32.40;;;;;;5073218;28;20447;-66
2021/05/03 09:00:48;;;;;;;57.57;2.70;;;13.10;32.10;;;;;;5073655;28;20567;-67
2021/05/03 09:03:15;;;;;;;57.90;3.37;;;13.20;31.00;;;;;;5073046;28;21007;-67
2021/05/03 09:05:42;;;;;;;57.87;2.80;;;13.50;31.50;;;;;;5073096;28;20447;-66
2021/05/03 09:08:21;;;;;;;58.47;3.57;;;13.70;30.10;;;;;;5073321;28;20951;-66
2021/05/03 09:10:47;;;;;;;58.30;4.03;;;13.80;29.70;;;;;;5073170;28;21047;-67
2021/05/03 09:13:14;;;;;;;57.80;3.10;;;13.90;29.60;;;;;;5073034;28;20458;-66
2021/05/03 09:15:41;;;;;;;57.30;2.60;;;14.10;29.70;;;;;;5072984;28;20906;-66
2021/05/03 09:18:07;;;;;;;57.77;3.10;;;14.20;29.10;;;;;;5073239;28;20482;-66
2021/05/03 09:20:35;;;;;;;59.07;3.10;;;14.20;29.10;;;;;;5072972;28;20463;-67
2021/05/03 09:23:05;;;;;;;57.50;2.50;;;14.30;28.40;;;;;;5072820;28;20530;-67
2021/05/03 09:25:35;;;;;;;57.80;2.97;;;14.40;27.70;;;;;;5072586;28;20447;-66
2021/05/03 09:28:07;;;;;;;58.43;3.67;;;14.70;28.80;;;;;;5073166;28;20493;-66
2021/05/03 09:30:39;;;;;;;57.60;3.10;;;15.20;26.10;;;;;;5072876;28;20588;-66
2021/05/03 09:33:20;;;;;;;58.00;3.10;;;15.50;25.50;;;;;;5072865;28;20864;-67
2021/05/03 09:35:49;;;;;;;59.23;3.93;;;15.60;25.70;;;;;;5072390;28;20836;-67
2021/05/03 09:38:44;;;;;;;57.47;2.63;;;15.80;24.40;;;;;;5072903;28;20458;-67
2021/05/03 09:41:16;;;;;;;57.93;2.80;;;15.70;24.40;;;;;;5037115;28;20484;-67
2021/05/03 09:43:44;;;;;;;57.20;2.47;;;15.70;24.30;;;;;;5072099;28;20475;-66
2021/05/03 09:46:31;;;;;;;58.20;2.93;;;15.70;24.30;;;;;;5072360;28;20447;-66
2021/05/03 09:49:00;;;;;;;57.23;2.50;;;15.80;24.40;;;;;;5072509;28;20443;-66
2021/05/03 09:51:36;;;;;;;57.17;2.60;;;15.90;24.50;;;;;;5072049;28;20504;-66
2021/05/03 09:54:04;;;;;;;57.57;3.23;;;15.80;24.40;;;;;;5071112;28;20484;-66
2021/05/03 09:56:55;;;;;;;57.30;2.50;;;15.80;24.30;;;;;;5072158;28;20456;-67
2021/05/03 09:59:36;;;;;;;57.27;2.60;;;16.00;24.60;;;;;;5072448;28;20534;-67
2021/05/03 10:02:05;;;;;;;57.40;3.60;;;16.10;22.60;;;;;;5071994;28;20444;-67
2021/05/03 10:04:33;;;;;;;57.70;2.73;;;16.30;24.30;;;;;;5072067;28;20450;-66
2021/05/03 10:07:01;;;;;;;58.13;3.23;;;16.80;23.10;;;;;;5071839;28;20495;-68
2021/05/03 10:09:29;;;;;;;58.57;3.70;;;17.20;21.50;;;;;;5072188;28;20453;-65
2021/05/03 10:11:56;;;;;;;57.70;2.50;;;17.40;19.50;;;;;;5089145;28;20449;-66
2021/05/03 10:14:23;;;;;;;57.47;3.03;;;17.20;20.40;;;;;;5092071;28;20492;-67
2021/05/03 10:16:50;;;;;;;58.20;3.03;;;16.80;20.20;;;;;;5092196;28;20546;-66
2021/05/03 10:19:20;;;;;;;57.27;2.77;;;16.50;21.60;;;;;;5092116;28;20994;-67
2021/05/03 10:21:47;;;;;;;57.40;2.50;;;16.20;21.00;;;;;;5091082;28;20542;-68
2021/05/03 10:24:16;;;;;;;57.27;2.40;;;15.80;19.40;;;;;;5092017;28;20454;-67
2021/05/03 10:26:45;;;;;;;57.53;2.70;;;15.20;20.20;;;;;;5089591;28;20875;-67
2021/05/03 10:29:26;;;;;;;58.47;3.17;;;14.80;21.20;;;;;;5092002;28;21230;-66
2021/05/03 10:32:01;;;;;;;57.37;2.60;;;14.70;21.80;;;;;;5091638;28;20478;-66
2021/05/03 10:34:43;;;;;;;58.90;5.07;;;14.50;21.40;;;;;;5091884;28;20489;-66
2021/05/03 10:37:48;;;;;;;58.20;2.83;;;14.20;21.00;;;;;;5091863;28;20450;-66
2021/05/03 10:40:49;;;;;;;57.70;2.97;;;14.20;22.90;;;;;;5091607;28;20498;-66
2021/05/03 10:43:18;;;;;;;57.77;2.90;;;14.60;23.00;;;;;;5091496;28;20442;-67
2021/05/03 10:45:55;;;;;;;57.10;2.73;;;14.90;22.10;;;;;;5091439;28;20526;-67
2021/05/03 10:48:55;;;;;;;58.07;3.30;;;15.10;22.00;;;;;;5091706;28;20544;-68
2021/05/03 10:51:53;;;;;;;57.37;2.50;;;15.30;21.70;;;;;;5080522;28;20490;-67
2021/05/03 10:54:49;;;;;;;58.00;3.00;;;15.20;20.70;;;;;;5091519;28;20578;-67
2021/05/03 10:57:36;;;;;;;57.03;2.30;;;14.90;20.70;;;;;;5091689;28;20450;-67
2021/05/03 11:00:31;;;;;;;57.60;2.90;;;14.80;21.20;;;;;;5091735;28;20469;-68
2021/05/03 11:02:57;;;;;;;57.27;2.53;;;15.00;21.90;;;;;;5084035;28;20956;-68
2021/05/03 11:05:26;;;;;;;57.30;2.87;;;15.20;20.50;;;;;;5090823;28;20563;-67
2021/05/03 11:08:30;;;;;;;57.20;2.47;;;15.20;20.70;;;;;;5091698;28;20446;-67
2021/05/03 11:11:10;;;;;;;57.50;3.00;;;15.10;20.10;;;;;;5091486;28;20478;-67
2021/05/03 11:13:45;;;;;;;56.70;2.40;;;16.00;22.70;;;;;;5090590;28;20500;-68
2021/05/03 11:16:49;;;;;;;58.53;3.50;;;17.20;19.00;;;;;;5091382;28;20446;-67
2021/05/03 11:19:33;;;;;;;58.27;3.27;;;17.30;17.20;;;;;;5091200;28;20928;-69
2021/05/03 11:21:59;;;;;;;57.17;2.50;;;17.20;18.30;;;;;;5090942;28;20456;-68
2021/05/03 11:24:30;;;;;;;57.77;3.03;;;17.50;16.80;;;;;;5091193;28;20451;-67
2021/05/03 11:26:59;;;;;;;57.80;3.10;;;17.70;18.10;;;;;;5091536;28;20464;-65
2021/05/03 11:29:33;;;;;;;57.60;2.70;;;19.10;16.90;;;;;;5091402;28;20843;-66
2021/05/03 11:32:00;;;;;;;56.97;2.90;;;19.80;16.00;;;;;;5089940;28;20449;-66
2021/05/03 11:34:30;;;;;;;57.10;2.80;;;19.90;15.50;;;;;;5091139;28;20547;-66
2021/05/03 11:37:00;;;;;;;58.50;2.60;;;19.60;15.50;;;;;;5089339;28;20446;-66
2021/05/03 11:39:33;;;;;;;57.83;2.50;;;19.20;15.90;;;;;;5090722;28;20450;-66
2021/05/03 11:42:28;;;;;;;57.17;2.60;;;18.80;15.60;;;;;;5091032;28;20883;-67
2021/05/03 11:44:56;;;;;;;58.10;2.70;;;18.30;15.30;;;;;;5090859;28;20444;-66
2021/05/03 11:47:27;;;;;;;57.70;2.40;;;17.70;16.30;;;;;;5091472;28;20450;-66
2021/05/03 11:49:54;;;;;;;57.50;2.70;;;17.40;16.00;;;;;;5091152;28;21089;-67
2021/05/03 11:52:28;;;;;;;58.10;3.23;;;17.30;16.60;;;;;;5090675;28;20545;-67
2021/05/03 11:55:03;;;;;;;58.47;2.67;;;17.50;16.70;;;;;;5090754;28;20526;-67
2021/05/03 11:57:31;;;;;;;57.10;2.70;;;17.90;17.20;;;;;;5090940;28;21043;-67
2021/05/03 12:00:05;;;;;;;58.00;3.10;;;18.20;18.00;;;;;;5091237;28;20477;-67
2021/05/03 12:02:31;;;;;;;56.70;2.67;;;19.60;17.70;;;;;;5090769;28;20541;-67
2021/05/03 12:04:57;;;;;;;57.37;2.53;;;21.20;17.10;;;;;;5090852;28;20449;-67
2021/05/03 12:07:27;;;;;;;57.27;2.80;;;22.90;13.20;;;;;;5090062;28;20492;-67
2021/05/03 12:10:01;;;;;;;57.80;2.90;;;23.30;12.70;;;;;;5087893;28;20481;-68
2021/05/03 12:12:33;;;;;;;56.93;2.50;;;24.00;13.70;;;;;;5090518;28;20476;-66
2021/05/03 12:15:00;;;;;;;57.80;2.50;;;24.40;13.30;;;;;;5090689;28;20489;-67
2021/05/03 12:17:29;;;;;;;57.47;2.40;;;25.40;12.10;;;;;;5094200;28;20518;-67
2021/05/03 12:19:57;;;;;;;57.37;2.30;;;25.90;10.10;;;;;;5094333;28;21022;-67
2021/05/03 12:22:25;;;;;;;57.83;2.40;;;25.10;10.20;;;;;;5093886;28;20532;-67
2021/05/03 12:24:54;;;;;;;57.07;2.20;;;24.60;10.90;;;;;;5094082;28;20438;-67
2021/05/03 12:27:21;;;;;;;57.70;2.80;;;24.40;10.10;;;;;;5094530;28;20496;-68
2021/05/03 12:29:48;;;;;;;57.23;2.20;;;25.20;10.50;;;;;;5094547;28;20442;-67
2021/05/03 12:32:16;;;;;;;57.30;2.50;;;26.00;10.10;;;;;;5094246;28;20517;-67
2021/05/03 12:34:48;;;;;;;57.27;2.40;;;27.20;10.80;;;;;;5093993;28;20522;-67
2021/05/03 12:37:17;;;;;;;58.10;2.90;;;27.60;8.00;;;;;;5094154;28;20526;-66
2021/05/03 12:40:03;;;;;;;57.47;2.73;;;26.30;9.40;;;;;;5090121;28;20454;-67
2021/05/03 12:42:36;;;;;;;57.47;2.50;;;24.80;9.90;;;;;;5093592;28;20821;-67
2021/05/03 12:45:17;;;;;;;57.30;2.33;;;23.30;9.90;;;;;;5093904;28;20525;-66
2021/05/03 12:47:57;;;;;;;57.47;2.40;;;22.00;10.50;;;;;;5094212;28;20453;-66
2021/05/03 12:50:29;;;;;;;57.90;3.40;;;21.10;10.90;;;;;;5093792;28;20851;-66
2021/05/03 12:53:03;;;;;;;57.40;2.50;;;20.50;11.50;;;;;;5093432;28;20451;-67
2021/05/03 12:55:35;;;;;;;57.53;2.40;;;20.70;11.60;;;;;;5093452;28;20484;-66
2021/05/03 12:58:16;;;;;;;57.70;2.70;;;20.80;12.90;;;;;;5093498;28;20454;-66
2021/05/03 13:00:57;;;;;;;57.70;2.50;;;21.20;11.20;;;;;;5093780;28;20483;-67
2021/05/03 13:03:37;;;;;;;57.60;2.53;;;21.00;11.40;;;;;;5093362;28;20453;-67